createdAt,value
2022-08-02T00:00:55.727Z,59.26
2022-08-02T00:01:57.709Z,59.72
2022-08-02T00:02:59.356Z,59.39
2022-08-02T00:04:01.065Z,59.37
2022-08-02T00:05:02.972Z,59.30
2022-08-02T00:06:04.685Z,59.20
2022-08-02T00:07:06.288Z,59.30
2022-08-02T00:08:07.864Z,59.48
2022-08-02T00:09:09.505Z,59.27
2022-08-02T00:10:12.914Z,59.56
2022-08-02T00:11:14.612Z,59.10
2022-08-02T00:12:16.556Z,59.56
2022-08-02T00:13:18.151Z,59.32
2022-08-02T00:14:19.819Z,59.03
2022-08-02T00:15:21.499Z,59.33
2022-08-02T00:16:37.260Z,59.52
2022-08-02T00:17:40.100Z,59.57
2022-08-02T00:18:41.730Z,59.29
2022-08-02T00:19:43.910Z,59.35
2022-08-02T00:20:45.500Z,59.29
2022-08-02T00:21:47.179Z,59.24
2022-08-02T00:22:48.770Z,59.36
2022-08-02T00:24:27.764Z,59.01
2022-08-02T00:25:12.061Z,59.06
2022-08-02T00:26:13.716Z,58.84
2022-08-02T00:27:15.312Z,58.93
2022-08-02T00:28:20.591Z,58.73
2022-08-02T00:29:32.355Z,58.57
2022-08-02T00:30:34.383Z,58.41
2022-08-02T00:31:36.060Z,58.54
2022-08-02T00:32:37.670Z,58.80
2022-08-02T00:34:27.462Z,58.76
2022-08-02T00:35:01.752Z,58.68
2022-08-02T00:36:03.888Z,58.39
2022-08-02T00:37:05.503Z,58.49
2022-08-02T00:38:07.170Z,58.62
2022-08-02T00:39:34.415Z,58.25
2022-08-02T00:40:30.766Z,57.81
2022-08-02T00:41:32.423Z,58.02
2022-08-02T00:42:34.015Z,57.46
2022-08-02T00:43:35.629Z,57.86
2022-08-02T00:44:37.244Z,57.69
2022-08-02T00:46:02.037Z,58.17
2022-08-02T00:47:02.195Z,58.22
2022-08-02T00:48:05.351Z,58.41
2022-08-02T00:49:07.034Z,58.22
2022-08-02T00:50:09.130Z,58.18
2022-08-02T00:51:11.927Z,57.92
2022-08-02T00:52:13.874Z,58.10
2022-08-02T00:53:15.652Z,58.82
2022-08-02T00:54:17.231Z,58.73
2022-08-02T00:55:19.010Z,58.68
2022-08-02T00:56:32.824Z,58.78
2022-08-02T00:57:34.462Z,59.20
2022-08-02T00:58:36.227Z,59.04
2022-08-02T00:59:37.935Z,59.94
2022-08-02T01:00:39.556Z,60.53
2022-08-02T01:01:57.136Z,61.32
2022-08-02T01:02:59.686Z,62.07
2022-08-02T01:04:01.297Z,63.26
2022-08-02T01:05:03.782Z,64.12
2022-08-02T01:06:13.408Z,64.24
2022-08-02T01:07:15.835Z,64.33
2022-08-02T01:08:17.702Z,64.29
2022-08-02T01:09:19.567Z,64.51
2022-08-02T01:10:21.254Z,64.05
2022-08-02T01:11:22.827Z,64.14
2022-08-02T01:12:24.394Z,63.92
2022-08-02T01:13:27.608Z,63.77
2022-08-02T01:14:29.762Z,63.78
2022-08-02T01:15:35.582Z,63.59
2022-08-02T01:16:54.093Z,63.20
2022-08-02T01:18:28.519Z,63.33
2022-08-02T01:19:30.036Z,62.99
2022-08-02T01:20:53.519Z,62.62
2022-08-02T01:22:15.079Z,62.54
2022-08-02T01:23:52.723Z,62.19
2022-08-02T01:25:13.256Z,61.99
2022-08-02T01:26:14.769Z,61.68
2022-08-02T01:28:07.425Z,61.16
2022-08-02T01:29:17.082Z,61.15
2022-08-02T01:30:19.742Z,61.06
2022-08-02T01:31:33.272Z,61.14
2022-08-02T01:32:41.596Z,61.39
2022-08-02T01:33:49.872Z,61.51
2022-08-02T01:34:56.421Z,61.83
2022-08-02T01:36:00.220Z,62.10
2022-08-02T01:37:17.003Z,61.57
2022-08-02T01:38:28.003Z,61.09
2022-08-02T01:39:33.591Z,60.87
2022-08-02T01:40:38.642Z,60.69
2022-08-02T01:41:42.494Z,60.61
2022-08-02T01:42:48.515Z,60.36
2022-08-02T01:43:55.886Z,60.28
2022-08-02T01:44:59.463Z,60.58
2022-08-02T01:46:01.593Z,60.70
2022-08-02T01:47:08.059Z,60.53
2022-08-02T01:48:11.471Z,60.55
2022-08-02T01:49:17.871Z,60.58
2022-08-02T01:50:25.876Z,60.83
2022-08-02T01:51:47.338Z,60.79
2022-08-02T01:52:53.237Z,60.85
2022-08-02T01:53:55.966Z,60.51
2022-08-02T01:55:18.786Z,60.21
2022-08-02T01:56:22.025Z,60.47
2022-08-02T01:57:26.138Z,60.49
2022-08-02T01:58:31.554Z,60.53
2022-08-02T01:59:35.298Z,60.56
2022-08-02T02:00:40.129Z,60.71
2022-08-02T02:01:43.012Z,60.66
2022-08-02T02:02:47.754Z,61.11
2022-08-02T02:03:49.890Z,60.88
2022-08-02T02:04:53.010Z,61.12
2022-08-02T02:05:58.624Z,61.19
2022-08-02T02:07:01.640Z,61.45
2022-08-02T02:08:07.243Z,61.54
2022-08-02T02:09:09.801Z,61.36
2022-08-02T02:10:15.629Z,61.50
2022-08-02T02:12:09.399Z,61.58
2022-08-02T02:12:40.662Z,61.37
2022-08-02T02:13:42.877Z,61.11
2022-08-02T02:14:49.164Z,61.29
2022-08-02T02:15:55.493Z,61.51
2022-08-02T02:16:59.320Z,61.66
2022-08-02T02:18:12.697Z,61.51
2022-08-02T02:19:20.864Z,61.03
2022-08-02T02:20:23.961Z,61.15
2022-08-02T02:21:25.674Z,61.09
2022-08-02T02:22:27.347Z,60.96
2022-08-02T02:23:30.165Z,60.95
2022-08-02T02:24:37.222Z,61.15
2022-08-02T02:25:41.722Z,61.34
2022-08-02T02:26:52.265Z,61.66
2022-08-02T02:28:13.074Z,61.42
2022-08-02T02:29:16.458Z,60.92
2022-08-02T02:30:18.358Z,61.24
2022-08-02T02:31:21.649Z,61.39
2022-08-02T02:32:25.010Z,61.52
2022-08-02T02:33:29.581Z,61.46
2022-08-02T02:34:37.835Z,61.37
2022-08-02T02:35:42.256Z,61.18
2022-08-02T02:36:50.879Z,61.37
2022-08-02T02:37:54.936Z,62.10
2022-08-02T02:39:03.661Z,62.18
2022-08-02T02:40:06.888Z,62.65
2022-08-02T02:41:09.768Z,63.12
2022-08-02T02:42:15.511Z,63.60
2022-08-02T02:43:17.616Z,64.46
2022-08-02T02:44:21.575Z,65.83
2022-08-02T02:45:24.226Z,67.02
2022-08-02T02:46:27.293Z,67.96
2022-08-02T02:47:40.509Z,69.68
2022-08-02T02:48:43.926Z,70.92
2022-08-02T02:49:48.181Z,71.14
2022-08-02T02:50:51.014Z,72.59
2022-08-02T02:51:53.948Z,73.02
2022-08-02T02:52:56.834Z,73.32
2022-08-02T02:54:32.280Z,73.57
2022-08-02T02:55:22.933Z,73.79
2022-08-02T02:56:24.983Z,74.04
2022-08-02T02:57:26.826Z,74.69
2022-08-02T02:58:29.099Z,74.33
2022-08-02T02:59:32.583Z,74.88
2022-08-02T03:00:52.850Z,74.31
2022-08-02T03:01:57.646Z,74.52
2022-08-02T03:02:59.797Z,74.75
2022-08-02T03:04:04.357Z,74.35
2022-08-02T03:05:10.791Z,74.28
2022-08-02T03:06:15.072Z,74.35
2022-08-02T03:07:17.952Z,74.19
2022-08-02T03:08:19.602Z,74.47
2022-08-02T03:09:21.327Z,74.10
2022-08-02T03:10:22.919Z,74.05
2022-08-02T03:11:29.807Z,74.46
2022-08-02T03:12:32.594Z,74.23
2022-08-02T03:13:37.482Z,74.20
2022-08-02T03:14:43.479Z,74.17
2022-08-02T03:15:46.844Z,74.56
2022-08-02T03:16:50.921Z,74.66
2022-08-02T03:17:52.555Z,75.40
2022-08-02T03:18:55.877Z,75.44
2022-08-02T03:19:57.497Z,74.73
2022-08-02T03:21:19.295Z,74.60
2022-08-02T03:22:20.939Z,73.97
2022-08-02T03:23:22.550Z,73.94
2022-08-02T03:24:27.606Z,74.01
2022-08-02T03:25:30.159Z,73.73
2022-08-02T03:26:32.003Z,73.27
2022-08-02T03:27:33.637Z,72.90
2022-08-02T03:28:35.324Z,72.52
2022-08-02T03:29:36.959Z,71.97
2022-08-02T03:30:38.526Z,71.46
2022-08-02T03:31:42.813Z,71.19
2022-08-02T03:32:47.377Z,71.34
2022-08-02T03:33:49.538Z,71.04
2022-08-02T03:34:51.198Z,70.95
2022-08-02T03:35:55.382Z,70.39
2022-08-02T03:36:58.216Z,70.18
2022-08-02T03:38:00.402Z,70.00
2022-08-02T03:39:04.302Z,70.11
2022-08-02T03:40:08.231Z,69.95
2022-08-02T03:41:12.826Z,69.80
2022-08-02T03:42:16.178Z,69.55
2022-08-02T03:43:18.049Z,68.83
2022-08-02T03:44:19.992Z,69.45
2022-08-02T03:45:22.404Z,69.73
2022-08-02T03:46:26.582Z,69.73
2022-08-02T03:47:28.979Z,69.72
2022-08-02T03:48:34.802Z,69.05
2022-08-02T03:49:37.783Z,68.90
2022-08-02T03:50:41.035Z,68.77
2022-08-02T03:51:42.932Z,68.67
2022-08-02T03:52:47.626Z,68.15
2022-08-02T03:53:49.365Z,67.84
2022-08-02T03:54:51.185Z,67.84
2022-08-02T03:55:55.836Z,67.75
2022-08-02T03:56:57.947Z,67.99
2022-08-02T03:57:59.706Z,67.91
2022-08-02T03:59:09.473Z,67.76
2022-08-02T04:00:18.009Z,67.54
2022-08-02T04:01:19.678Z,67.37
2022-08-02T04:02:21.332Z,67.40
2022-08-02T04:03:23.080Z,67.63
2022-08-02T04:04:24.709Z,67.42
2022-08-02T04:05:26.458Z,66.94
2022-08-02T04:06:28.480Z,66.46
2022-08-02T04:08:03.486Z,66.62
2022-08-02T04:08:53.038Z,65.78
2022-08-02T04:09:54.611Z,65.97
2022-08-02T04:11:14.603Z,66.22
2022-08-02T04:12:16.171Z,66.02
2022-08-02T04:13:17.833Z,66.03
2022-08-02T04:14:23.094Z,65.32
2022-08-02T04:15:25.015Z,64.95
2022-08-02T04:16:38.910Z,64.51
2022-08-02T04:17:45.997Z,64.08
2022-08-02T04:18:55.278Z,63.96
2022-08-02T04:20:04.146Z,63.65
2022-08-02T04:21:09.502Z,63.11
2022-08-02T04:22:16.519Z,62.78
2022-08-02T04:23:18.640Z,62.08
2022-08-02T04:24:27.985Z,62.41
2022-08-02T04:25:40.258Z,62.28
2022-08-02T04:26:44.162Z,61.38
2022-08-02T04:28:17.310Z,61.52
2022-08-02T04:29:14.159Z,61.56
2022-08-02T04:30:17.595Z,62.16
2022-08-02T04:31:19.885Z,62.25
2022-08-02T04:32:22.549Z,61.92
2022-08-02T04:33:25.004Z,62.64
2022-08-02T04:34:26.781Z,62.66
2022-08-02T04:35:28.636Z,62.42
2022-08-02T04:36:31.022Z,62.10
2022-08-02T04:37:34.680Z,60.81
2022-08-02T04:38:36.902Z,61.87
2022-08-02T04:39:38.688Z,61.69
2022-08-02T04:40:40.346Z,61.20
2022-08-02T04:41:44.536Z,60.46
2022-08-02T04:42:46.221Z,60.81
2022-08-02T04:43:47.876Z,60.45
2022-08-02T04:44:50.552Z,59.85
2022-08-02T04:45:55.090Z,59.44
2022-08-02T04:46:58.199Z,59.40
2022-08-02T04:48:04.804Z,58.11
2022-08-02T04:49:07.344Z,58.13
2022-08-02T04:50:09.543Z,57.72
2022-08-02T04:51:11.121Z,57.35
2022-08-02T04:52:13.647Z,57.05
2022-08-02T04:53:15.706Z,56.46
2022-08-02T04:54:17.329Z,56.67
2022-08-02T04:55:18.927Z,56.20
2022-08-02T04:56:21.307Z,55.93
2022-08-02T04:57:52.928Z,55.66
2022-08-02T04:58:54.847Z,53.93
2022-08-02T04:59:57.060Z,55.03
2022-08-02T05:00:58.705Z,53.88
2022-08-02T05:02:00.293Z,54.61
2022-08-02T05:03:01.984Z,53.92
2022-08-02T05:04:03.790Z,53.83
2022-08-02T05:05:10.165Z,53.54
2022-08-02T05:06:19.508Z,52.56
2022-08-02T05:07:21.353Z,51.62
2022-08-02T05:08:22.910Z,51.09
2022-08-02T05:09:24.467Z,50.75
2022-08-02T05:10:26.081Z,50.43
2022-08-02T05:11:36.295Z,50.36
2022-08-02T05:12:40.215Z,50.22
2022-08-02T05:13:58.092Z,50.36
2022-08-02T05:15:01.117Z,50.69
2022-08-02T05:16:04.628Z,50.76
2022-08-02T05:17:06.812Z,50.58
2022-08-02T05:18:08.574Z,50.35
2022-08-02T05:19:10.212Z,50.43
2022-08-02T05:20:15.482Z,49.81
2022-08-02T05:21:17.123Z,49.34
2022-08-02T05:22:18.736Z,49.47
2022-08-02T05:23:20.569Z,49.27
2022-08-02T05:24:22.179Z,49.36
2022-08-02T05:25:23.742Z,49.20
2022-08-02T05:26:25.544Z,48.73
2022-08-02T05:27:27.235Z,49.12
2022-08-02T05:28:28.972Z,49.18
2022-08-02T05:29:31.626Z,49.23
2022-08-02T05:30:33.238Z,48.34
2022-08-02T05:31:34.855Z,48.45
2022-08-02T05:32:46.793Z,47.93
2022-08-02T05:33:48.521Z,47.86
2022-08-02T05:34:50.167Z,47.94
2022-08-02T05:35:51.871Z,47.88
2022-08-02T05:36:53.478Z,47.45
2022-08-02T05:37:55.237Z,47.99
2022-08-02T05:39:04.628Z,47.79
2022-08-02T05:40:12.706Z,47.35
2022-08-02T05:41:14.962Z,47.17
2022-08-02T05:42:16.662Z,47.84
2022-08-02T05:43:18.293Z,48.30
2022-08-02T05:44:22.539Z,48.03
2022-08-02T05:45:24.258Z,48.65
2022-08-02T05:46:26.258Z,48.57
2022-08-02T05:47:28.636Z,48.64
2022-08-02T05:48:32.396Z,48.09
2022-08-02T05:49:34.408Z,48.83
2022-08-02T05:50:39.880Z,48.20
2022-08-02T05:52:09.607Z,48.08
2022-08-02T05:53:18.608Z,48.51
2022-08-02T05:54:27.655Z,47.83
2022-08-02T05:55:35.290Z,48.34
2022-08-02T05:56:50.566Z,47.67
2022-08-02T05:58:01.448Z,47.61
2022-08-02T05:59:18.754Z,47.81
2022-08-02T06:00:21.689Z,47.65
2022-08-02T06:01:44.990Z,47.06
2022-08-02T06:03:05.510Z,46.42
2022-08-02T06:04:09.836Z,45.86
2022-08-02T06:05:11.588Z,45.38
2022-08-02T06:06:16.166Z,46.20
2022-08-02T06:07:19.729Z,44.97
2022-08-02T06:08:25.640Z,45.92
2022-08-02T06:09:28.364Z,45.03
2022-08-02T06:10:31.284Z,45.27
2022-08-02T06:12:02.408Z,45.15
2022-08-02T06:13:14.559Z,44.53
2022-08-02T06:14:16.860Z,44.21
2022-08-02T06:15:20.329Z,43.41
2022-08-02T06:16:32.458Z,43.68
2022-08-02T06:17:34.920Z,42.29
2022-08-02T06:18:44.153Z,42.02
2022-08-02T06:19:52.494Z,41.92
2022-08-02T06:20:57.360Z,42.00
2022-08-02T06:22:32.695Z,41.14
2022-08-02T06:23:42.686Z,41.24
2022-08-02T06:25:02.557Z,41.27
2022-08-02T06:26:07.072Z,41.21
2022-08-02T06:27:09.102Z,41.30
2022-08-02T06:28:11.812Z,41.24
2022-08-02T06:29:14.878Z,41.60
2022-08-02T06:30:16.784Z,41.46
2022-08-02T06:31:19.293Z,41.19
2022-08-02T06:32:21.445Z,41.70
2022-08-02T06:33:24.366Z,41.40
2022-08-02T06:34:25.926Z,41.37
2022-08-02T06:36:01.151Z,40.82
2022-08-02T06:37:15.325Z,41.06
2022-08-02T06:38:24.283Z,40.65
2022-08-02T06:39:39.174Z,40.92
2022-08-02T06:40:43.767Z,41.03
2022-08-02T06:41:49.415Z,41.96
2022-08-02T06:42:59.908Z,41.22
2022-08-02T06:44:26.183Z,40.87
2022-08-02T06:45:24.956Z,41.29
2022-08-02T06:46:38.035Z,41.66
2022-08-02T06:47:48.976Z,41.06
2022-08-02T06:48:50.805Z,41.49
2022-08-02T06:49:54.235Z,41.17
2022-08-02T06:50:56.516Z,41.19
2022-08-02T06:51:58.210Z,41.87
2022-08-02T06:53:00.584Z,42.66
2022-08-02T06:54:02.306Z,41.58
2022-08-02T06:55:05.674Z,41.17
2022-08-02T06:56:07.363Z,41.17
2022-08-02T06:57:10.768Z,41.34
2022-08-02T06:58:14.090Z,41.27
2022-08-02T06:59:15.812Z,41.42
2022-08-02T07:00:17.465Z,40.94
2022-08-02T07:01:19.941Z,40.39
2022-08-02T07:02:21.647Z,40.05
2022-08-02T07:03:25.514Z,39.84
2022-08-02T07:04:27.104Z,40.12
2022-08-02T07:05:28.737Z,39.70
2022-08-02T07:06:31.304Z,39.59
2022-08-02T07:07:33.429Z,39.54
2022-08-02T07:08:38.448Z,39.77
2022-08-02T07:10:00.887Z,40.83
2022-08-02T07:11:06.324Z,42.04
2022-08-02T07:12:08.184Z,42.04
2022-08-02T07:13:10.623Z,42.54
2022-08-02T07:14:12.301Z,42.08
2022-08-02T07:15:13.919Z,41.58
2022-08-02T07:16:15.704Z,41.76
2022-08-02T07:17:17.288Z,41.54
2022-08-02T07:18:18.964Z,41.40
2022-08-02T07:19:20.635Z,40.71
2022-08-02T07:20:23.270Z,42.15
2022-08-02T07:21:56.352Z,43.11
2022-08-02T07:22:46.480Z,42.72
2022-08-02T07:23:48.089Z,42.94
2022-08-02T07:24:50.257Z,42.40
2022-08-02T07:26:02.642Z,41.92
2022-08-02T07:27:11.556Z,41.22
2022-08-02T07:28:24.091Z,40.40
2022-08-02T07:29:26.874Z,39.62
2022-08-02T07:30:34.371Z,39.58
2022-08-02T07:31:36.263Z,38.76
2022-08-02T07:32:38.082Z,39.89
2022-08-02T07:33:42.357Z,40.41
2022-08-02T07:34:52.876Z,40.14
2022-08-02T07:35:57.424Z,39.89
2022-08-02T07:36:59.057Z,40.42
2022-08-02T07:38:02.984Z,39.69
2022-08-02T07:39:06.190Z,39.50
2022-08-02T07:40:14.067Z,39.58
2022-08-02T07:41:17.079Z,39.22
2022-08-02T07:42:18.743Z,38.93
2022-08-02T07:43:20.370Z,38.16
2022-08-02T07:44:22.180Z,37.91
2022-08-02T07:45:27.699Z,38.31
2022-08-02T07:46:29.358Z,37.80
2022-08-02T07:47:31.346Z,37.57
2022-08-02T07:48:33.582Z,37.52
2022-08-02T07:49:35.319Z,37.22
2022-08-02T07:50:37.007Z,37.29
2022-08-02T07:51:38.597Z,36.89
2022-08-02T07:52:44.815Z,37.46
2022-08-02T07:53:51.200Z,37.35
2022-08-02T07:55:05.381Z,37.44
2022-08-02T07:56:07.006Z,37.33
2022-08-02T07:57:08.639Z,36.97
2022-08-02T07:58:12.284Z,36.69
2022-08-02T07:59:15.031Z,36.24
2022-08-02T08:00:17.612Z,36.79
2022-08-02T08:01:19.608Z,37.00
2022-08-02T08:02:21.357Z,36.92
2022-08-02T08:03:23.037Z,37.33
2022-08-02T08:04:24.668Z,37.30
2022-08-02T08:05:26.221Z,37.08
2022-08-02T08:06:29.046Z,36.73
2022-08-02T08:07:30.936Z,35.97
2022-08-02T08:08:35.105Z,35.47
2022-08-02T08:09:42.353Z,35.66
2022-08-02T08:10:44.116Z,35.09
2022-08-02T08:11:45.817Z,35.27
2022-08-02T08:12:47.400Z,34.23
2022-08-02T08:13:49.067Z,34.17
2022-08-02T08:14:50.748Z,35.15
2022-08-02T08:15:52.783Z,34.93
2022-08-02T08:16:54.849Z,35.42
2022-08-02T08:17:56.710Z,35.92
2022-08-02T08:18:58.460Z,36.59
2022-08-02T08:20:01.707Z,36.94
2022-08-02T08:21:04.338Z,37.71
2022-08-02T08:22:06.128Z,36.40
2022-08-02T08:23:07.776Z,36.21
2022-08-02T08:24:09.411Z,36.76
2022-08-02T08:25:11.096Z,36.38
2022-08-02T08:26:15.767Z,36.17
2022-08-02T08:27:18.511Z,36.07
2022-08-02T08:28:20.283Z,35.53
2022-08-02T08:29:22.363Z,35.23
2022-08-02T08:30:24.079Z,35.95
2022-08-02T08:31:25.635Z,35.92
2022-08-02T08:32:27.646Z,35.22
2022-08-02T08:33:29.298Z,35.35
2022-08-02T08:34:31.447Z,36.17
2022-08-02T08:35:33.259Z,35.89
2022-08-02T08:36:34.834Z,36.59
2022-08-02T08:37:36.894Z,36.07
2022-08-02T08:38:38.520Z,35.86
2022-08-02T08:39:53.618Z,35.51
2022-08-02T08:41:00.385Z,35.74
2022-08-02T08:42:02.638Z,36.02
2022-08-02T08:43:04.954Z,34.75
2022-08-02T08:44:08.499Z,35.83
2022-08-02T08:45:10.633Z,35.58
2022-08-02T08:46:21.060Z,35.30
2022-08-02T08:47:24.085Z,35.68
2022-08-02T08:48:30.336Z,36.02
2022-08-02T08:49:37.169Z,36.12
2022-08-02T08:51:01.022Z,36.04
2022-08-02T08:52:06.729Z,36.31
2022-08-02T08:53:12.227Z,36.49
2022-08-02T08:54:17.314Z,36.72
2022-08-02T08:55:23.199Z,36.84
2022-08-02T08:56:33.352Z,37.04
2022-08-02T08:57:39.991Z,37.01
2022-08-02T08:58:42.700Z,37.07
2022-08-02T08:59:46.376Z,36.69
2022-08-02T09:00:48.056Z,36.32
2022-08-02T09:01:53.237Z,36.46
2022-08-02T09:02:55.104Z,36.43
2022-08-02T09:03:57.413Z,36.93
2022-08-02T09:04:59.052Z,36.69
2022-08-02T09:06:01.018Z,36.12
2022-08-02T09:07:02.815Z,35.96
2022-08-02T09:08:05.202Z,35.88
2022-08-02T09:09:06.985Z,36.36
2022-08-02T09:10:33.680Z,36.00
2022-08-02T09:11:35.274Z,36.51
2022-08-02T09:12:36.869Z,36.56
2022-08-02T09:13:46.077Z,36.60
2022-08-02T09:14:50.280Z,36.61
2022-08-02T09:15:57.502Z,36.38
2022-08-02T09:17:12.199Z,37.12
2022-08-02T09:18:13.935Z,36.76
2022-08-02T09:19:24.243Z,36.72
2022-08-02T09:20:30.433Z,36.33
2022-08-02T09:21:37.134Z,36.46
2022-08-02T09:22:38.773Z,36.06
2022-08-02T09:23:46.385Z,36.16
2022-08-02T09:24:50.060Z,36.89
2022-08-02T09:26:07.391Z,36.42
2022-08-02T09:27:17.609Z,36.54
2022-08-02T09:28:19.237Z,35.68
2022-08-02T09:29:24.965Z,37.05
2022-08-02T09:30:27.041Z,36.64
2022-08-02T09:31:28.712Z,36.41
2022-08-02T09:32:43.953Z,35.63
2022-08-02T09:33:57.725Z,35.98
2022-08-02T09:34:59.307Z,36.20
2022-08-02T09:36:06.314Z,36.64
2022-08-02T09:37:22.909Z,35.59
2022-08-02T09:38:25.963Z,35.46
2022-08-02T09:39:44.996Z,34.88
2022-08-02T09:40:49.237Z,35.26
2022-08-02T09:41:50.878Z,35.69
2022-08-02T09:43:01.327Z,35.77
2022-08-02T09:44:07.107Z,36.17
2022-08-02T09:45:09.534Z,36.51
2022-08-02T09:46:24.458Z,36.20
2022-08-02T09:47:28.272Z,36.87
2022-08-02T09:48:32.740Z,36.38
2022-08-02T09:49:34.401Z,36.67
2022-08-02T09:50:41.913Z,36.38
2022-08-02T09:51:49.659Z,36.94
2022-08-02T09:52:51.328Z,37.06
2022-08-02T09:54:08.592Z,37.08
2022-08-02T09:55:11.816Z,36.94
2022-08-02T09:56:29.523Z,36.41
2022-08-02T09:57:38.527Z,36.40
2022-08-02T09:58:40.459Z,36.51
2022-08-02T09:59:53.475Z,36.73
2022-08-02T10:00:56.779Z,35.98
2022-08-02T10:02:02.547Z,36.26
2022-08-02T10:03:21.557Z,36.17
2022-08-02T10:04:26.431Z,36.31
2022-08-02T10:05:35.607Z,36.03
2022-08-02T10:06:44.573Z,36.19
2022-08-02T10:07:46.319Z,34.96
2022-08-02T10:08:48.147Z,35.12
2022-08-02T10:09:51.109Z,34.77
2022-08-02T10:11:00.591Z,35.54
2022-08-02T10:12:08.869Z,35.88
2022-08-02T10:13:11.622Z,35.34
2022-08-02T10:14:13.633Z,35.91
2022-08-02T10:15:17.567Z,36.61
2022-08-02T10:16:23.470Z,36.26
2022-08-02T10:17:25.369Z,36.75
2022-08-02T10:18:39.498Z,36.79
2022-08-02T10:20:02.467Z,36.49
2022-08-02T10:21:10.738Z,36.40
2022-08-02T10:22:15.296Z,37.06
2022-08-02T10:23:20.618Z,36.16
2022-08-02T10:24:27.170Z,35.54
2022-08-02T10:25:30.453Z,35.57
2022-08-02T10:26:32.902Z,34.22
2022-08-02T10:28:02.425Z,34.33
2022-08-02T10:28:57.822Z,34.94
2022-08-02T10:30:00.741Z,35.41
2022-08-02T10:31:05.637Z,36.11
2022-08-02T10:32:43.030Z,34.57
2022-08-02T10:33:50.098Z,35.21
2022-08-02T10:34:57.561Z,34.84
2022-08-02T10:36:07.553Z,35.16
2022-08-02T10:37:11.520Z,36.57
2022-08-02T10:38:18.296Z,36.42
2022-08-02T10:39:20.016Z,35.27
2022-08-02T10:40:26.543Z,35.09
2022-08-02T10:41:43.785Z,34.10
2022-08-02T10:42:45.373Z,34.50
2022-08-02T10:43:48.148Z,34.58
2022-08-02T10:45:09.593Z,35.49
2022-08-02T10:46:36.845Z,34.62
2022-08-02T10:47:38.531Z,34.54
2022-08-02T10:49:38.525Z,35.00
2022-08-02T10:50:46.049Z,34.58
2022-08-02T10:52:03.129Z,34.45
2022-08-02T10:53:27.685Z,33.92
2022-08-02T10:54:35.791Z,34.03
2022-08-02T10:55:46.551Z,34.36
2022-08-02T10:56:53.568Z,34.83
2022-08-02T10:58:29.931Z,33.72
2022-08-02T10:59:36.286Z,34.01
2022-08-02T11:00:38.121Z,34.06
2022-08-02T11:01:44.137Z,34.21
2022-08-02T11:02:53.387Z,33.90
2022-08-02T11:04:00.072Z,34.05
2022-08-02T11:05:05.176Z,35.02
2022-08-02T11:06:24.972Z,35.22
2022-08-02T11:07:39.507Z,34.12
2022-08-02T11:08:41.356Z,33.90
2022-08-02T11:09:46.936Z,34.00
2022-08-02T11:10:48.752Z,33.92
2022-08-02T11:12:10.995Z,34.71
2022-08-02T11:13:19.516Z,33.51
2022-08-02T11:14:21.301Z,34.20
2022-08-02T11:15:23.151Z,34.46
2022-08-02T11:17:07.802Z,35.28
2022-08-02T11:18:09.386Z,34.86
2022-08-02T11:19:11.907Z,35.32
2022-08-02T11:20:13.538Z,34.61
2022-08-02T11:21:29.977Z,34.86
2022-08-02T11:22:31.673Z,35.01
2022-08-02T11:23:45.175Z,36.00
2022-08-02T11:24:47.647Z,35.85
2022-08-02T11:26:10.805Z,34.70
2022-08-02T11:27:22.138Z,35.00
2022-08-02T11:28:25.714Z,35.51
2022-08-02T11:29:45.553Z,35.98
2022-08-02T11:30:56.777Z,35.67
2022-08-02T11:31:59.031Z,35.41
2022-08-02T11:33:01.299Z,35.07
2022-08-02T11:34:09.266Z,35.48
2022-08-02T11:35:12.097Z,35.84
2022-08-02T11:36:15.239Z,36.31
2022-08-02T11:37:43.440Z,34.66
2022-08-02T11:38:45.768Z,34.88
2022-08-02T11:39:51.840Z,35.20
2022-08-02T11:40:57.248Z,35.04
2022-08-02T11:42:00.898Z,35.44
2022-08-02T11:43:02.476Z,34.41
2022-08-02T11:44:04.452Z,34.81
2022-08-02T11:45:08.766Z,35.09
2022-08-02T11:46:14.844Z,35.19
2022-08-02T11:47:16.606Z,34.49
2022-08-02T11:48:35.469Z,34.87
2022-08-02T11:49:37.564Z,35.28
2022-08-02T11:50:39.286Z,35.14
2022-08-02T11:51:54.588Z,34.73
2022-08-02T11:52:56.326Z,35.55
2022-08-02T11:53:58.009Z,34.87
2022-08-02T11:54:59.787Z,34.83
2022-08-02T11:56:01.375Z,34.59
2022-08-02T11:57:15.612Z,35.44
2022-08-02T11:58:20.813Z,34.87
2022-08-02T11:59:22.562Z,35.38
2022-08-02T12:00:26.967Z,34.98
2022-08-02T12:01:36.753Z,34.35
2022-08-02T12:02:48.506Z,34.85
2022-08-02T12:03:50.416Z,34.17
2022-08-02T12:05:10.170Z,34.59
2022-08-02T12:06:16.732Z,34.18
2022-08-02T12:07:18.935Z,33.72
2022-08-02T12:08:37.806Z,34.42
2022-08-02T12:09:41.410Z,34.90
2022-08-02T12:10:49.844Z,33.56
2022-08-02T12:11:51.697Z,34.54
2022-08-02T12:12:58.994Z,33.74
2022-08-02T12:14:01.116Z,34.29
2022-08-02T12:15:02.816Z,34.61
2022-08-02T12:16:31.132Z,34.34
2022-08-02T12:17:51.194Z,34.80
2022-08-02T12:19:11.709Z,33.98
2022-08-02T12:20:17.373Z,33.86
2022-08-02T12:21:26.481Z,33.84
2022-08-02T12:22:28.362Z,34.38
2022-08-02T12:23:30.500Z,33.79
2022-08-02T12:24:32.126Z,34.02
2022-08-02T12:25:35.553Z,34.41
2022-08-02T12:26:45.292Z,34.81
2022-08-02T12:27:46.921Z,34.30
2022-08-02T12:28:57.479Z,33.73
2022-08-02T12:30:06.785Z,33.42
2022-08-02T12:31:10.757Z,33.43
2022-08-02T12:32:24.200Z,33.76
2022-08-02T12:33:44.083Z,34.56
2022-08-02T12:35:08.387Z,34.42
2022-08-02T12:36:20.252Z,35.01
2022-08-02T12:37:25.839Z,33.93
2022-08-02T12:38:27.462Z,33.18
2022-08-02T12:39:39.468Z,33.56
2022-08-02T12:40:41.548Z,33.44
2022-08-02T12:41:55.018Z,33.56
2022-08-02T12:42:59.336Z,33.90
2022-08-02T12:44:01.045Z,33.62
2022-08-02T12:45:02.640Z,33.50
2022-08-02T12:46:04.268Z,33.37
2022-08-02T12:47:12.103Z,33.50
2022-08-02T12:48:13.990Z,33.85
2022-08-02T12:49:19.828Z,34.29
2022-08-02T12:50:24.836Z,33.85
2022-08-02T12:51:56.512Z,33.51
2022-08-02T12:53:16.130Z,33.93
2022-08-02T12:54:27.421Z,33.60
2022-08-02T12:56:02.298Z,32.80
2022-08-02T12:56:55.040Z,33.21
2022-08-02T12:58:00.264Z,33.17
2022-08-02T12:59:01.974Z,33.49
2022-08-02T13:00:04.524Z,33.05
2022-08-02T13:01:06.130Z,32.71
2022-08-02T13:02:11.594Z,32.51
2022-08-02T13:04:11.239Z,32.46
2022-08-02T13:04:35.895Z,32.15
2022-08-02T13:05:57.187Z,33.33
2022-08-02T13:06:59.285Z,33.19
2022-08-02T13:08:00.988Z,32.51
2022-08-02T13:09:12.694Z,32.05
2022-08-02T13:10:14.595Z,32.73
2022-08-02T13:11:16.485Z,33.27
2022-08-02T13:12:20.545Z,32.92
2022-08-02T13:13:22.497Z,33.21
2022-08-02T13:14:24.082Z,33.45
2022-08-02T13:15:49.600Z,33.62
2022-08-02T13:16:51.537Z,32.62
2022-08-02T13:17:53.567Z,33.23
2022-08-02T13:18:55.128Z,32.60
2022-08-02T13:19:56.749Z,33.16
2022-08-02T13:20:59.175Z,33.15
2022-08-02T13:22:11.491Z,33.10
2022-08-02T13:23:21.227Z,33.11
2022-08-02T13:24:39.434Z,33.84
2022-08-02T13:25:45.296Z,33.41
2022-08-02T13:26:54.250Z,33.28
2022-08-02T13:27:55.927Z,32.68
2022-08-02T13:28:57.729Z,32.83
2022-08-02T13:30:00.417Z,33.43
2022-08-02T13:31:20.584Z,33.49
2022-08-02T13:32:25.129Z,33.12
2022-08-02T13:33:26.696Z,32.82
2022-08-02T13:34:28.335Z,32.22
2022-08-02T13:35:30.424Z,32.92
2022-08-02T13:36:33.719Z,33.45
2022-08-02T13:37:40.118Z,33.16
2022-08-02T13:38:42.190Z,33.29
2022-08-02T13:39:55.349Z,33.73
2022-08-02T13:41:11.097Z,33.50
2022-08-02T13:42:16.792Z,33.36
2022-08-02T13:43:18.632Z,33.67
2022-08-02T13:44:20.268Z,33.70
2022-08-02T13:45:22.113Z,33.50
2022-08-02T13:46:28.891Z,33.48
2022-08-02T13:47:36.532Z,33.63
2022-08-02T13:48:52.869Z,33.91
2022-08-02T13:49:54.589Z,34.10
2022-08-02T13:50:56.341Z,33.62
2022-08-02T13:51:57.925Z,34.18
2022-08-02T13:52:59.628Z,33.15
2022-08-02T13:54:01.279Z,32.96
2022-08-02T13:55:03.441Z,33.20
2022-08-02T13:56:14.072Z,32.16
2022-08-02T13:57:16.031Z,32.88
2022-08-02T13:58:17.634Z,32.35
2022-08-02T13:59:54.808Z,33.13
2022-08-02T14:00:41.026Z,33.23
2022-08-02T14:01:42.633Z,32.95
2022-08-02T14:02:44.262Z,32.93
2022-08-02T14:04:07.802Z,32.97
2022-08-02T14:05:07.853Z,33.43
2022-08-02T14:06:10.779Z,33.78
2022-08-02T14:07:12.952Z,33.52
2022-08-02T14:08:16.809Z,33.90
2022-08-02T14:09:19.042Z,33.88
2022-08-02T14:10:20.611Z,34.01
2022-08-02T14:11:22.322Z,33.49
2022-08-02T14:12:23.925Z,34.15